Time;durP1;ratioP1;P1;durP2;ratioP2;P2;SDS_P1;SDS_P2;PMS_P1;PMS_P2;Temp;Humidity;BMP_temperature;BMP_pressure;BME280_temperature;BME280_humidity;BME280_pressure;Samples;Min_cycle;Max_cycle;Signal;HPM_P1;HPM_P2
2023/09/08 00:00:52;;;;;;;11.45;7.88;;;;;;;;;;5023820;28;20129;-69
2023/09/08 00:03:18;;;;;;;8.93;7.00;;;;;;;;;;5032195;28;20037;-69
2023/09/08 00:05:44;;;;;;;13.07;7.05;;;;;;;;;;5010131;28;20057;-69
2023/09/08 00:08:10;;;;;;;9.63;7.07;;;;;;;;;;5006670;28;20048;-69
2023/09/08 00:10:36;;;;;;;7.93;6.65;;;;;;;;;;5017705;28;20049;-69
2023/09/08 00:13:02;;;;;;;9.65;6.50;;;;;;;;;;5017062;28;20045;-69
2023/09/08 00:15:28;;;;;;;8.93;6.93;;;;;;;;;;5010368;28;20108;-69
2023/09/08 00:17:54;;;;;;;10.25;6.50;;;;;;;;;;5016280;28;20112;-69
2023/09/08 00:20:20;;;;;;;8.02;6.03;;;;;;;;;;5024112;28;20060;-69
2023/09/08 00:22:46;;;;;;;9.25;6.65;;;;;;;;;;5013439;28;20108;-69
2023/09/08 00:25:12;;;;;;;10.05;7.78;;;;;;;;;;5007367;28;20041;-69
2023/09/08 00:27:38;;;;;;;8.15;7.10;;;;;;;;;;5022137;28;20038;-69
2023/09/08 00:30:04;;;;;;;11.63;7.68;;;;;;;;;;5031469;28;20042;-69
2023/09/08 00:32:30;;;;;;;9.75;7.47;;;;;;;;;;5031628;28;20053;-69
2023/09/08 00:34:56;;;;;;;10.90;7.50;;;;;;;;;;5021050;28;20090;-69
2023/09/08 00:37:22;;;;;;;10.02;7.85;;;;;;;;;;5011685;28;20067;-69
2023/09/08 00:39:48;;;;;;;8.98;6.97;;;;;;;;;;5031637;28;20045;-69
2023/09/08 00:42:14;;;;;;;8.00;7.20;;;;;;;;;;5031395;28;20044;-69
2023/09/08 00:44:40;;;;;;;9.40;7.13;;;;;;;;;;5034282;28;20116;-69
2023/09/08 00:47:06;;;;;;;9.70;7.15;;;;;;;;;;5034692;28;20391;-69
2023/09/08 00:49:32;;;;;;;8.57;6.50;;;;;;;;;;5019297;28;20399;-69
2023/09/08 00:51:58;;;;;;;10.13;7.35;;;;;;;;;;5020407;28;20037;-69
2023/09/08 00:54:24;;;;;;;10.95;7.68;;;;;;;;;;5027094;28;20045;-69
2023/09/08 00:56:57;;;;;;;8.30;6.78;;;;;;;;;;5007277;28;20038;-69
2023/09/08 00:59:24;;;;;;;7.78;6.65;;;;;;;;;;5016345;28;20400;-69
2023/09/08 01:01:50;;;;;;;10.20;7.13;;;;;;;;;;5018743;28;20612;-69
2023/09/08 01:04:16;;;;;;;7.50;6.70;;;;;;;;;;5031589;28;20113;-69
2023/09/08 01:06:42;;;;;;;9.23;7.15;;;;;;;;;;5014751;28;20044;-69
2023/09/08 01:09:09;;;;;;;7.25;6.30;;;;;;;;;;5029385;28;20112;-69
2023/09/08 01:11:36;;;;;;;8.82;6.65;;;;;;;;;;5026400;28;20483;-69
2023/09/08 01:14:02;;;;;;;10.75;7.45;;;;;;;;;;5034769;28;20069;-69
2023/09/08 01:16:28;;;;;;;8.77;6.47;;;;;;;;;;5034863;28;20060;-69
2023/09/08 01:18:55;;;;;;;8.68;6.97;;;;;;;;;;5035248;28;20102;-69
2023/09/08 01:21:45;;;;;;;9.10;7.90;;;;;;;;;;5021710;28;20100;-69
2023/09/08 01:24:29;;;;;;;9.50;7.35;;;;;;;;;;5000955;28;20084;-69
2023/09/08 01:26:55;;;;;;;8.73;7.60;;;;;;;;;;5034162;28;20037;-69
2023/09/08 01:29:24;;;;;;;8.15;7.35;;;;;;;;;;5034568;28;20049;-70
2023/09/08 01:31:50;;;;;;;8.60;7.40;;;;;;;;;;5034225;28;20049;-70
2023/09/08 01:34:16;;;;;;;8.05;7.00;;;;;;;;;;5034449;28;20042;-70
2023/09/08 01:36:42;;;;;;;8.52;7.10;;;;;;;;;;5034155;28;20041;-70
2023/09/08 01:39:08;;;;;;;10.50;7.35;;;;;;;;;;5010226;28;20034;-70
2023/09/08 01:41:34;;;;;;;10.35;7.55;;;;;;;;;;5015349;28;20392;-70
2023/09/08 01:44:05;;;;;;;8.68;7.22;;;;;;;;;;5034273;28;20030;-70
2023/09/08 01:46:31;;;;;;;9.23;7.70;;;;;;;;;;5034209;28;20380;-70
2023/09/08 01:48:57;;;;;;;9.00;6.95;;;;;;;;;;5033693;28;20120;-70
2023/09/08 01:51:22;;;;;;;10.07;7.68;;;;;;;;;;5016742;28;20403;-70
2023/09/08 01:53:48;;;;;;;10.35;7.68;;;;;;;;;;5017080;28;20076;-70
2023/09/08 01:56:14;;;;;;;9.50;8.00;;;;;;;;;;5033166;28;20048;-70
2023/09/08 01:58:40;;;;;;;8.77;7.88;;;;;;;;;;5015530;28;20693;-70
2023/09/08 02:01:06;;;;;;;15.80;9.25;;;;;;;;;;5018065;28;20036;-70
2023/09/08 02:03:33;;;;;;;11.60;8.48;;;;;;;;;;5032967;28;20037;-70
2023/09/08 02:05:59;;;;;;;12.90;8.27;;;;;;;;;;4998851;28;20033;-70
2023/09/08 02:08:25;;;;;;;10.57;8.13;;;;;;;;;;5014159;28;20034;-70
2023/09/08 02:10:51;;;;;;;9.45;7.95;;;;;;;;;;5033688;28;20029;-70
2023/09/08 02:13:17;;;;;;;10.10;9.02;;;;;;;;;;5033679;28;20037;-70
2023/09/08 02:15:43;;;;;;;10.65;7.95;;;;;;;;;;5023389;28;20037;-70
2023/09/08 02:18:09;;;;;;;9.07;7.32;;;;;;;;;;5013214;28;20034;-70
2023/09/08 02:20:35;;;;;;;10.85;7.97;;;;;;;;;;5022779;28;20041;-70
2023/09/08 02:23:04;;;;;;;8.18;7.30;;;;;;;;;;5033399;28;20057;-70
2023/09/08 02:25:30;;;;;;;9.95;8.10;;;;;;;;;;5033540;28;20041;-70
2023/09/08 02:27:56;;;;;;;12.48;8.70;;;;;;;;;;5033808;28;20029;-69
2023/09/08 02:30:22;;;;;;;9.65;8.68;;;;;;;;;;5032577;28;20402;-69
2023/09/08 02:32:48;;;;;;;10.93;8.77;;;;;;;;;;5012977;28;20095;-70
2023/09/08 02:35:14;;;;;;;11.63;8.95;;;;;;;;;;5013117;28;20042;-69
2023/09/08 02:37:40;;;;;;;10.68;7.82;;;;;;;;;;5015192;28;20124;-69
2023/09/08 02:40:07;;;;;;;10.23;8.75;;;;;;;;;;5019903;28;20121;-69
2023/09/08 02:42:33;;;;;;;11.20;9.00;;;;;;;;;;5030591;28;20055;-69
2023/09/08 02:44:59;;;;;;;11.38;8.35;;;;;;;;;;5032897;28;20120;-69
2023/09/08 02:47:25;;;;;;;10.70;8.90;;;;;;;;;;5013550;28;20500;-69
2023/09/08 02:49:51;;;;;;;9.90;8.77;;;;;;;;;;5012098;28;20057;-69
2023/09/08 02:52:19;;;;;;;13.35;8.70;;;;;;;;;;5028296;28;20116;-69
2023/09/08 02:54:45;;;;;;;11.60;9.85;;;;;;;;;;5032860;28;20049;-69
2023/09/08 02:57:11;;;;;;;9.98;8.55;;;;;;;;;;5032162;28;20407;-69
2023/09/08 02:59:37;;;;;;;10.18;8.90;;;;;;;;;;5032643;28;20084;-69
2023/09/08 03:02:03;;;;;;;11.63;9.70;;;;;;;;;;5023948;28;20073;-69
2023/09/08 03:04:29;;;;;;;11.35;9.82;;;;;;;;;;5012716;28;20067;-69
2023/09/08 03:06:55;;;;;;;11.43;8.48;;;;;;;;;;4997371;28;20033;-69
2023/09/08 03:09:21;;;;;;;11.10;8.90;;;;;;;;;;5012825;28;20479;-69
2023/09/08 03:11:47;;;;;;;13.07;9.27;;;;;;;;;;5023044;28;20046;-69
2023/09/08 03:14:13;;;;;;;11.18;9.25;;;;;;;;;;5032537;28;20053;-69
2023/09/08 03:16:39;;;;;;;10.45;9.30;;;;;;;;;;5032334;28;20041;-69
2023/09/08 03:19:05;;;;;;;10.32;9.27;;;;;;;;;;5032879;28;20468;-69
2023/09/08 03:21:31;;;;;;;13.15;9.05;;;;;;;;;;5020217;28;20038;-69
2023/09/08 03:23:57;;;;;;;9.90;8.52;;;;;;;;;;5012682;28;20044;-69
2023/09/08 03:26:23;;;;;;;11.40;8.98;;;;;;;;;;5028042;28;20120;-69
2023/09/08 03:28:49;;;;;;;11.18;8.48;;;;;;;;;;5029185;28;20048;-70
2023/09/08 03:31:15;;;;;;;11.20;8.57;;;;;;;;;;5018901;28;20479;-70
2023/09/08 03:33:42;;;;;;;11.48;9.18;;;;;;;;;;5032446;28;20132;-70
2023/09/08 03:36:08;;;;;;;11.80;9.45;;;;;;;;;;5032316;28;20132;-70
2023/09/08 03:38:36;;;;;;;11.80;9.18;;;;;;;;;;5012869;28;20100;-70
2023/09/08 03:41:02;;;;;;;10.13;8.70;;;;;;;;;;5015487;28;20042;-70
2023/09/08 03:43:28;;;;;;;9.98;8.63;;;;;;;;;;5014790;28;20037;-70
2023/09/08 03:45:54;;;;;;;13.20;9.18;;;;;;;;;;5002526;28;20369;-70
2023/09/08 03:48:20;;;;;;;10.38;9.35;;;;;;;;;;5012655;28;20041;-70
2023/09/08 03:50:47;;;;;;;14.32;9.70;;;;;;;;;;5030695;28;20037;-70
2023/09/08 03:53:13;;;;;;;11.60;9.32;;;;;;;;;;5015468;28;20049;-70
2023/09/08 03:55:39;;;;;;;14.73;9.23;;;;;;;;;;5009212;28;20124;-70
2023/09/08 03:58:05;;;;;;;11.65;10.07;;;;;;;;;;5025141;28;20154;-70
2023/09/08 04:00:31;;;;;;;12.85;9.52;;;;;;;;;;5027155;28;20049;-70
2023/09/08 04:02:57;;;;;;;12.93;9.88;;;;;;;;;;5008601;28;20034;-70
2023/09/08 04:05:23;;;;;;;12.23;10.10;;;;;;;;;;5006154;28;20042;-70
2023/09/08 04:07:49;;;;;;;12.15;9.80;;;;;;;;;;5019398;28;20187;-69
2023/09/08 04:10:15;;;;;;;12.90;9.52;;;;;;;;;;5007153;28;20048;-69
2023/09/08 04:12:41;;;;;;;11.85;9.68;;;;;;;;;;5011023;28;20053;-69
2023/09/08 04:15:07;;;;;;;13.32;10.52;;;;;;;;;;5005512;28;20038;-69
2023/09/08 04:17:35;;;;;;;11.68;9.95;;;;;;;;;;5020723;28;20499;-69
2023/09/08 04:20:01;;;;;;;12.40;9.38;;;;;;;;;;5022833;28;20045;-70
2023/09/08 04:22:27;;;;;;;12.70;9.82;;;;;;;;;;5026072;28;20448;-70
2023/09/08 04:24:54;;;;;;;13.65;10.25;;;;;;;;;;5016001;28;20046;-69
2023/09/08 04:27:20;;;;;;;11.68;10.23;;;;;;;;;;5030400;28;20041;-69
2023/09/08 04:29:46;;;;;;;14.65;9.90;;;;;;;;;;5035304;28;20464;-70
2023/09/08 04:32:12;;;;;;;14.95;10.75;;;;;;;;;;5037465;28;20069;-69
2023/09/08 04:34:39;;;;;;;11.75;9.60;;;;;;;;;;5011117;28;20064;-69
2023/09/08 04:37:05;;;;;;;13.45;10.55;;;;;;;;;;5019894;28;20470;-69
2023/09/08 04:39:31;;;;;;;14.02;9.98;;;;;;;;;;5035526;28;20041;-69
2023/09/08 04:41:57;;;;;;;17.27;11.02;;;;;;;;;;5032534;28;20543;-69
2023/09/08 04:44:23;;;;;;;14.93;10.98;;;;;;;;;;5022037;28;20045;-69
2023/09/08 04:46:49;;;;;;;12.52;10.10;;;;;;;;;;5022108;28;20543;-69
2023/09/08 04:49:15;;;;;;;14.52;10.25;;;;;;;;;;5022834;23;20037;-64
2023/09/08 04:51:41;;;;;;;12.85;10.25;;;;;;;;;;5009665;28;20049;-64
2023/09/08 04:54:07;;;;;;;13.68;10.25;;;;;;;;;;5010350;28;20436;-64
2023/09/08 04:56:33;;;;;;;14.85;10.15;;;;;;;;;;4981846;28;20050;-64
2023/09/08 04:59:00;;;;;;;15.30;10.70;;;;;;;;;;4995656;28;20100;-64
2023/09/08 05:01:26;;;;;;;13.05;10.65;;;;;;;;;;4994238;28;20484;-64
2023/09/08 05:03:52;;;;;;;15.95;10.65;;;;;;;;;;4992090;28;20077;-64
2023/09/08 05:06:18;;;;;;;14.20;10.05;;;;;;;;;;4983886;28;20031;-64
2023/09/08 05:08:44;;;;;;;14.02;11.05;;;;;;;;;;4975793;28;20049;-66
2023/09/08 05:11:10;;;;;;;15.02;10.95;;;;;;;;;;4976008;28;20034;-66
2023/09/08 05:13:37;;;;;;;13.95;10.68;;;;;;;;;;4976190;28;20057;-66
2023/09/08 05:16:11;;;;;;;15.43;11.00;;;;;;;;;;4975150;28;20043;-66
2023/09/08 05:18:40;;;;;;;15.60;9.90;;;;;;;;;;4986065;28;20444;-66
2023/09/08 05:21:07;;;;;;;14.48;10.60;;;;;;;;;;4983966;28;20597;-66
2023/09/08 05:23:33;;;;;;;15.30;11.43;;;;;;;;;;4979005;28;20038;-66
2023/09/08 05:25:59;;;;;;;14.27;10.98;;;;;;;;;;4990257;28;20034;-66
2023/09/08 05:28:25;;;;;;;14.88;10.90;;;;;;;;;;4990699;28;20062;-66
2023/09/08 05:30:51;;;;;;;16.38;10.48;;;;;;;;;;4991346;28;20069;-66
2023/09/08 05:33:17;;;;;;;14.02;10.77;;;;;;;;;;4994794;28;20396;-66
2023/09/08 05:35:44;;;;;;;14.43;10.60;;;;;;;;;;4994563;28;20117;-66
2023/09/08 05:38:10;;;;;;;12.68;9.98;;;;;;;;;;4995124;28;20391;-66
2023/09/08 05:40:36;;;;;;;14.88;10.38;;;;;;;;;;4994759;28;20043;-66
2023/09/08 05:43:02;;;;;;;15.73;10.93;;;;;;;;;;4985141;28;20435;-66
2023/09/08 05:45:29;;;;;;;13.23;10.15;;;;;;;;;;4994626;28;20046;-66
2023/09/08 05:47:54;;;;;;;14.13;10.90;;;;;;;;;;4989334;28;20092;-66
2023/09/08 05:50:21;;;;;;;14.82;10.75;;;;;;;;;;4994702;28;20447;-66
2023/09/08 05:52:46;;;;;;;13.15;11.25;;;;;;;;;;4994807;28;20045;-66
2023/09/08 05:55:12;;;;;;;15.52;11.10;;;;;;;;;;4994419;28;20038;-66
2023/09/08 05:57:38;;;;;;;15.05;10.93;;;;;;;;;;4986500;28;20090;-66
2023/09/08 06:00:05;;;;;;;13.75;10.65;;;;;;;;;;4994182;28;20146;-66
2023/09/08 06:02:31;;;;;;;15.88;11.32;;;;;;;;;;4994371;28;20554;-66
2023/09/08 06:04:57;;;;;;;13.45;11.10;;;;;;;;;;4989172;28;20621;-66
2023/09/08 06:07:23;;;;;;;12.73;10.85;;;;;;;;;;4982805;28;20047;-66
2023/09/08 06:09:49;;;;;;;14.82;11.25;;;;;;;;;;4975125;28;20115;-65
2023/09/08 06:12:15;;;;;;;14.88;11.10;;;;;;;;;;4974973;28;20470;-65
2023/09/08 06:14:41;;;;;;;14.57;11.50;;;;;;;;;;4975328;28;20043;-65
2023/09/08 06:17:07;;;;;;;15.07;11.18;;;;;;;;;;4973811;28;20133;-65
2023/09/08 06:19:33;;;;;;;13.55;10.63;;;;;;;;;;4980979;28;20125;-65
2023/09/08 06:21:59;;;;;;;13.15;11.75;;;;;;;;;;4974880;28;20077;-65
2023/09/08 06:24:25;;;;;;;13.73;11.05;;;;;;;;;;4974413;28;20078;-65
2023/09/08 06:26:51;;;;;;;12.95;11.00;;;;;;;;;;4974466;28;20043;-65
2023/09/08 06:29:17;;;;;;;14.45;11.38;;;;;;;;;;4974834;28;20038;-65
2023/09/08 06:31:43;;;;;;;19.65;12.70;;;;;;;;;;4974400;28;20434;-66
2023/09/08 06:34:09;;;;;;;15.20;11.95;;;;;;;;;;4976317;28;20066;-66
2023/09/08 06:36:36;;;;;;;15.32;11.65;;;;;;;;;;4992990;28;20045;-66
2023/09/08 06:39:03;;;;;;;14.40;11.63;;;;;;;;;;4994010;28;20089;-66
2023/09/08 06:41:29;;;;;;;21.75;12.68;;;;;;;;;;4993351;28;20512;-66
2023/09/08 06:43:55;;;;;;;15.02;11.98;;;;;;;;;;4994221;28;20121;-66
2023/09/08 06:46:21;;;;;;;17.60;12.60;;;;;;;;;;4993159;28;20146;-66
2023/09/08 06:48:47;;;;;;;15.10;12.32;;;;;;;;;;4992443;28;20546;-66
2023/09/08 06:51:14;;;;;;;17.02;12.27;;;;;;;;;;4985516;28;20049;-66
2023/09/08 06:53:40;;;;;;;14.45;11.32;;;;;;;;;;4994034;28;20065;-66
2023/09/08 06:56:05;;;;;;;16.17;11.55;;;;;;;;;;4993466;28;20476;-66
2023/09/08 06:58:31;;;;;;;15.02;11.75;;;;;;;;;;4993878;28;20038;-66
2023/09/08 07:00:57;;;;;;;15.80;12.13;;;;;;;;;;4993802;28;20038;-66
2023/09/08 07:03:24;;;;;;;13.07;11.07;;;;;;;;;;4993593;28;20488;-66
2023/09/08 07:05:50;;;;;;;16.98;12.43;;;;;;;;;;4983141;28;20485;-66
2023/09/08 07:08:17;;;;;;;13.75;11.38;;;;;;;;;;4980207;28;20039;-66
2023/09/08 07:10:44;;;;;;;12.85;11.30;;;;;;;;;;4974941;28;20047;-66
2023/09/08 07:13:10;;;;;;;14.95;11.27;;;;;;;;;;4993410;28;20041;-66
2023/09/08 07:15:36;;;;;;;14.93;11.45;;;;;;;;;;4993313;28;20080;-66
2023/09/08 07:18:02;;;;;;;14.48;10.98;;;;;;;;;;4993155;28;20093;-66
2023/09/08 07:20:28;;;;;;;16.20;11.27;;;;;;;;;;4992872;28;20039;-66
2023/09/08 07:22:54;;;;;;;15.30;10.88;;;;;;;;;;4983100;28;20039;-66
2023/09/08 07:25:20;;;;;;;14.65;10.90;;;;;;;;;;4979619;28;20061;-66
2023/09/08 07:27:46;;;;;;;13.75;11.50;;;;;;;;;;4973471;28;20043;-66
2023/09/08 07:30:12;;;;;;;14.98;10.50;;;;;;;;;;4977772;28;20057;-66
2023/09/08 07:32:39;;;;;;;14.90;10.82;;;;;;;;;;4992878;28;20099;-66
2023/09/08 07:35:05;;;;;;;14.43;10.52;;;;;;;;;;4992899;28;20042;-66
2023/09/08 07:37:31;;;;;;;15.40;11.25;;;;;;;;;;4991216;28;20054;-68
2023/09/08 07:39:57;;;;;;;12.48;10.88;;;;;;;;;;4992049;28;20046;-69
2023/09/08 07:42:25;;;;;;;13.88;10.50;;;;;;;;;;4991389;28;20039;-69
2023/09/08 07:44:51;;;;;;;15.85;10.80;;;;;;;;;;4981517;28;20068;-69
2023/09/08 07:47:17;;;;;;;12.50;10.73;;;;;;;;;;4984170;28;20444;-69
2023/09/08 07:49:46;;;;;;;12.25;10.95;;;;;;;;;;4989453;28;20042;-69
2023/09/08 07:52:12;;;;;;;15.07;10.05;;;;;;;;;;4992550;28;20073;-69
2023/09/08 07:54:38;;;;;;;12.23;10.90;;;;;;;;;;4992261;28;20508;-69
2023/09/08 07:57:04;;;;;;;12.27;9.57;;;;;;;;;;4975590;28;20046;-69
2023/09/08 07:59:30;;;;;;;12.85;9.65;;;;;;;;;;4991343;28;20038;-68
2023/09/08 08:01:56;;;;;;;13.25;10.20;;;;;;;;;;4991323;28;20038;-69
2023/09/08 08:04:22;;;;;;;11.68;9.25;;;;;;;;;;4991367;28;20097;-69
2023/09/08 08:06:49;;;;;;;11.07;9.10;;;;;;;;;;4982747;28;20545;-69
2023/09/08 08:09:15;;;;;;;11.15;9.50;;;;;;;;;;4981983;28;20046;-69
2023/09/08 08:11:41;;;;;;;11.80;9.40;;;;;;;;;;4983141;28;20596;-69
2023/09/08 08:14:07;;;;;;;13.10;10.18;;;;;;;;;;4980569;28;20042;-69
2023/09/08 08:16:34;;;;;;;15.20;10.63;;;;;;;;;;4978970;28;20046;-69
2023/09/08 08:19:00;;;;;;;17.92;9.73;;;;;;;;;;4976756;28;20053;-69
2023/09/08 08:21:26;;;;;;;12.65;9.50;;;;;;;;;;4984906;28;20039;-69
2023/09/08 08:23:52;;;;;;;11.75;9.27;;;;;;;;;;4980558;28;20489;-69
2023/09/08 08:26:18;;;;;;;12.77;9.02;;;;;;;;;;4973777;28;22007;-69
2023/09/08 08:28:44;;;;;;;11.35;8.70;;;;;;;;;;4972084;28;20043;-69
2023/09/08 08:31:10;;;;;;;10.85;8.65;;;;;;;;;;4981424;28;20039;-69
2023/09/08 08:33:36;;;;;;;10.32;8.32;;;;;;;;;;4979905;28;20129;-69
2023/09/08 08:36:03;;;;;;;10.02;8.45;;;;;;;;;;4980950;28;21553;-69
2023/09/08 08:38:29;;;;;;;10.93;8.85;;;;;;;;;;4991767;28;20043;-69
2023/09/08 08:40:55;;;;;;;9.65;8.02;;;;;;;;;;4982592;28;20046;-69
2023/09/08 08:43:22;;;;;;;10.05;7.90;;;;;;;;;;4978872;28;20366;-69
2023/09/08 08:45:48;;;;;;;11.18;8.05;;;;;;;;;;4970347;28;20133;-69
2023/09/08 08:48:15;;;;;;;11.07;8.38;;;;;;;;;;4986455;28;20041;-69
2023/09/08 08:50:42;;;;;;;8.63;7.72;;;;;;;;;;4988681;28;20038;-69
2023/09/08 08:53:09;;;;;;;11.02;7.80;;;;;;;;;;4984184;28;20069;-69
2023/09/08 08:55:35;;;;;;;9.20;7.82;;;;;;;;;;4988878;28;20042;-69
2023/09/08 08:58:05;;;;;;;10.55;8.63;;;;;;;;;;4988922;28;20049;-69
2023/09/08 09:00:35;;;;;;;11.40;7.57;;;;;;;;;;4977358;28;20092;-69
2023/09/08 09:03:01;;;;;;;9.25;7.38;;;;;;;;;;4996326;28;20041;-69
2023/09/08 09:05:27;;;;;;;8.43;7.20;;;;;;;;;;5004558;28;20088;-70
2023/09/08 09:07:54;;;;;;;8.77;7.28;;;;;;;;;;5003660;28;20038;-70
2023/09/08 09:10:20;;;;;;;9.88;7.88;;;;;;;;;;5006659;28;20565;-70
2023/09/08 09:12:46;;;;;;;7.85;7.05;;;;;;;;;;5005792;28;20050;-70
2023/09/08 09:15:12;;;;;;;9.60;7.07;;;;;;;;;;5002939;28;20042;-70
2023/09/08 09:17:39;;;;;;;9.23;6.32;;;;;;;;;;5003010;28;20065;-70
2023/09/08 09:20:20;;;;;;;11.75;7.13;;;;;;;;;;4996836;28;20131;-70
2023/09/08 09:22:46;;;;;;;;;;;;;;;;;;5006323;28;20046;-70
2023/09/08 09:25:38;;;;;;;8.98;6.43;;;;;;;;;;5010238;28;19925;-70
2023/09/08 09:28:04;;;;;;;9.82;6.32;;;;;;;;;;4999147;28;20054;-69
2023/09/08 09:30:46;;;;;;;9.63;6.90;;;;;;;;;;4993366;28;20064;-69
2023/09/08 09:33:12;;;;;;;6.90;6.20;;;;;;;;;;4987725;28;20035;-69
2023/09/08 09:35:46;;;;;;;7.93;5.93;;;;;;;;;;4994569;28;20070;-69
2023/09/08 09:38:12;;;;;;;8.35;6.07;;;;;;;;;;4995124;28;20160;-69
2023/09/08 09:40:39;;;;;;;7.07;6.00;;;;;;;;;;4995341;28;20050;-69
2023/09/08 09:43:05;;;;;;;8.68;6.10;;;;;;;;;;4995146;28;20046;-69
2023/09/08 09:45:32;;;;;;;7.60;5.65;;;;;;;;;;4994549;28;20042;-69
2023/09/08 09:47:58;;;;;;;7.25;6.10;;;;;;;;;;4994726;28;20030;-69
2023/09/08 09:50:29;;;;;;;8.70;6.22;;;;;;;;;;4994095;28;20042;-69
2023/09/08 09:52:58;;;;;;;10.70;6.28;;;;;;;;;;5003412;28;20046;-69
2023/09/08 09:55:24;;;;;;;7.18;5.85;;;;;;;;;;5008112;28;20142;-69
2023/09/08 09:57:51;;;;;;;9.90;6.10;;;;;;;;;;5001346;28;20091;-69
2023/09/08 10:00:19;;;;;;;8.65;6.40;;;;;;;;;;4994401;28;20369;-69
2023/09/08 10:02:45;;;;;;;7.03;5.65;;;;;;;;;;4994792;28;20508;-69
2023/09/08 10:05:12;;;;;;;8.32;6.05;;;;;;;;;;4980371;28;20492;-69
2023/09/08 10:07:40;;;;;;;8.85;5.35;;;;;;;;;;5012866;28;20132;-69
2023/09/08 10:10:06;;;;;;;5.93;5.32;;;;;;;;;;5013464;28;20037;-68
2023/09/08 10:12:35;;;;;;;7.50;5.40;;;;;;;;;;5014497;28;20121;-68
2023/09/08 10:15:04;;;;;;;7.47;4.97;;;;;;;;;;5003906;28;20519;-68
2023/09/08 10:17:31;;;;;;;6.55;5.20;;;;;;;;;;5004962;28;20045;-68
2023/09/08 10:20:00;;;;;;;7.97;5.75;;;;;;;;;;5013895;28;20065;-68
2023/09/08 10:22:29;;;;;;;6.43;5.47;;;;;;;;;;5013247;28;20044;-68
2023/09/08 10:24:56;;;;;;;5.88;5.03;;;;;;;;;;5013702;28;20073;-68
2023/09/08 10:27:23;;;;;;;6.18;4.90;;;;;;;;;;5013375;28;20041;-68
2023/09/08 10:29:50;;;;;;;8.95;5.75;;;;;;;;;;5013706;28;20402;-68
2023/09/08 10:32:17;;;;;;;8.40;5.15;;;;;;;;;;5014406;28;20042;-68
2023/09/08 10:34:45;;;;;;;6.47;5.28;;;;;;;;;;5013666;28;20052;-68
2023/09/08 10:37:29;;;;;;;6.07;5.13;;;;;;;;;;5013866;28;20045;-68
2023/09/08 10:39:56;;;;;;;7.93;5.78;;;;;;;;;;4998822;28;20042;-68
2023/09/08 10:42:25;;;;;;;8.15;6.07;;;;;;;;;;4993888;28;20046;-68
2023/09/08 10:44:51;;;;;;;6.45;5.50;;;;;;;;;;4994079;28;20038;-68
2023/09/08 10:47:24;;;;;;;6.15;5.35;;;;;;;;;;4994099;28;20113;-68
2023/09/08 10:49:53;;;;;;;7.20;4.60;;;;;;;;;;5029256;23;20242;-73
2023/09/08 10:52:21;;;;;;;8.68;5.07;;;;;;;;;;5027872;28;20033;-72
2023/09/08 10:54:55;;;;;;;6.68;5.30;;;;;;;;;;5011923;28;20180;-72
2023/09/08 10:57:22;;;;;;;5.88;5.13;;;;;;;;;;5004730;28;20507;-71
2023/09/08 11:00:00;;;;;;;6.32;4.65;;;;;;;;;;5011322;28;20042;-71
2023/09/08 11:02:38;;;;;;;5.43;4.70;;;;;;;;;;5008342;28;20050;-71
2023/09/08 11:05:08;;;;;;;6.43;5.22;;;;;;;;;;4993281;28;20041;-71
2023/09/08 11:07:35;;;;;;;5.50;4.88;;;;;;;;;;4993529;28;20046;-71
2023/09/08 11:10:01;;;;;;;6.68;4.55;;;;;;;;;;4993296;28;20389;-72
2023/09/08 11:12:28;;;;;;;6.60;5.40;;;;;;;;;;4999932;28;20046;-72
2023/09/08 11:14:54;;;;;;;7.60;4.65;;;;;;;;;;5002111;28;20044;-72
2023/09/08 11:17:20;;;;;;;7.10;4.75;;;;;;;;;;5012321;28;20511;-72
2023/09/08 11:19:47;;;;;;;6.47;4.93;;;;;;;;;;5012587;28;20048;-72
2023/09/08 11:22:14;;;;;;;6.55;4.68;;;;;;;;;;5013311;28;20046;-72
2023/09/08 11:24:42;;;;;;;6.68;5.00;;;;;;;;;;5012927;28;20041;-72
2023/09/08 11:27:08;;;;;;;7.95;4.85;;;;;;;;;;5012637;28;20092;-72
2023/09/08 11:29:34;;;;;;;6.57;4.85;;;;;;;;;;5013272;28;20049;-72
2023/09/08 11:32:00;;;;;;;8.25;5.10;;;;;;;;;;5012218;28;20057;-73
2023/09/08 11:34:26;;;;;;;6.20;4.60;;;;;;;;;;5012881;28;20487;-73
2023/09/08 11:36:52;;;;;;;7.05;4.65;;;;;;;;;;5011527;28;20536;-73
2023/09/08 11:39:19;;;;;;;9.00;4.72;;;;;;;;;;5000975;28;20042;-73
2023/09/08 11:41:45;;;;;;;6.00;4.57;;;;;;;;;;4993046;28;20050;-73
2023/09/08 11:44:15;;;;;;;7.95;5.10;;;;;;;;;;5011448;28;20432;-73
2023/09/08 11:46:41;;;;;;;7.75;4.85;;;;;;;;;;5010419;28;20518;-73
2023/09/08 11:49:07;;;;;;;6.55;4.82;;;;;;;;;;5011539;28;20045;-73
2023/09/08 11:51:33;;;;;;;6.38;4.72;;;;;;;;;;5013188;28;20496;-73
2023/09/08 11:54:00;;;;;;;7.00;4.88;;;;;;;;;;5013186;28;20052;-73
2023/09/08 11:56:26;;;;;;;5.78;4.57;;;;;;;;;;5012788;28;20038;-73
2023/09/08 11:58:52;;;;;;;6.43;5.25;;;;;;;;;;4996161;28;20420;-73
2023/09/08 12:01:19;;;;;;;6.93;4.55;;;;;;;;;;5005144;28;20037;-73
2023/09/08 12:03:52;;;;;;;8.23;4.75;;;;;;;;;;5013003;28;20048;-73
2023/09/08 12:06:18;;;;;;;7.13;4.57;;;;;;;;;;5004637;28;20113;-73
2023/09/08 12:08:45;;;;;;;8.02;4.50;;;;;;;;;;5012910;28;20081;-73
2023/09/08 12:11:12;;;;;;;6.00;4.85;;;;;;;;;;5012668;28;20125;-73
2023/09/08 12:13:38;;;;;;;5.53;4.55;;;;;;;;;;5012964;28;20407;-73
2023/09/08 12:16:17;;;;;;;5.05;4.55;;;;;;;;;;5002047;28;20042;-73
2023/09/08 12:18:45;;;;;;;5.35;4.38;;;;;;;;;;4992046;28;20056;-73
2023/09/08 12:21:11;;;;;;;10.60;4.95;;;;;;;;;;4997205;28;20050;-73
2023/09/08 12:23:50;;;;;;;7.35;4.50;;;;;;;;;;5012283;28;20048;-73
2023/09/08 12:26:16;;;;;;;6.78;4.18;;;;;;;;;;5002510;28;20049;-73
2023/09/08 12:28:42;;;;;;;6.93;4.57;;;;;;;;;;5012593;28;20037;-73
2023/09/08 12:31:09;;;;;;;7.63;4.10;;;;;;;;;;5011836;28;20046;-73
2023/09/08 12:33:35;;;;;;;6.53;4.15;;;;;;;;;;4998459;28;20044;-73
2023/09/08 12:36:10;;;;;;;5.22;4.13;;;;;;;;;;5008184;28;20056;-73
2023/09/08 12:38:37;;;;;;;8.00;4.43;;;;;;;;;;5012428;28;20042;-73
2023/09/08 12:41:03;;;;;;;4.80;4.15;;;;;;;;;;5014253;28;20443;-73
2023/09/08 12:43:29;;;;;;;5.53;4.10;;;;;;;;;;5014810;28;20042;-73
2023/09/08 12:45:56;;;;;;;5.35;4.20;;;;;;;;;;5015744;28;20034;-73
2023/09/08 12:48:22;;;;;;;6.75;4.18;;;;;;;;;;5010639;28;20038;-73
2023/09/08 12:50:49;;;;;;;5.50;4.38;;;;;;;;;;5010066;28;20603;-73
2023/09/08 12:53:19;;;;;;;5.43;4.30;;;;;;;;;;5007783;28;20053;-73
2023/09/08 12:55:45;;;;;;;5.28;3.85;;;;;;;;;;5010841;28;20042;-72
2023/09/08 12:58:11;;;;;;;7.30;4.63;;;;;;;;;;5014936;28;20040;-72
2023/09/08 13:00:37;;;;;;;4.97;4.10;;;;;;;;;;5012331;28;20046;-73
2023/09/08 13:03:03;;;;;;;4.53;3.83;;;;;;;;;;5014617;28;20053;-73
2023/09/08 13:05:30;;;;;;;5.50;3.80;;;;;;;;;;5014840;28;20037;-73
2023/09/08 13:07:56;;;;;;;5.72;4.10;;;;;;;;;;5015127;28;20050;-73
2023/09/08 13:10:22;;;;;;;6.05;4.30;;;;;;;;;;5014788;28;20099;-73
2023/09/08 13:12:48;;;;;;;4.78;4.28;;;;;;;;;;5015048;28;20041;-73
2023/09/08 13:15:14;;;;;;;5.53;4.07;;;;;;;;;;5007012;28;20064;-73
2023/09/08 13:17:40;;;;;;;6.13;4.60;;;;;;;;;;5012609;28;20487;-73
2023/09/08 13:20:07;;;;;;;5.63;4.20;;;;;;;;;;5013391;28;20038;-73
2023/09/08 13:22:34;;;;;;;5.82;4.28;;;;;;;;;;5013595;28;20038;-73
2023/09/08 13:25:00;;;;;;;6.88;4.30;;;;;;;;;;5011440;28;20034;-73
2023/09/08 13:27:26;;;;;;;6.32;4.15;;;;;;;;;;5007714;28;20061;-72
2023/09/08 13:29:55;;;;;;;4.53;4.07;;;;;;;;;;5013997;28;20416;-72
2023/09/08 13:32:22;;;;;;;4.78;4.10;;;;;;;;;;5005558;28;20050;-71
2023/09/08 13:34:48;;;;;;;6.35;4.22;;;;;;;;;;5015353;28;20077;-72
2023/09/08 13:37:14;;;;;;;6.15;4.18;;;;;;;;;;5013669;28;20037;-71
2023/09/08 13:39:40;;;;;;;6.10;4.22;;;;;;;;;;5010364;28;20046;-73
2023/09/08 13:42:07;;;;;;;8.10;4.63;;;;;;;;;;5014315;28;20176;-73
2023/09/08 13:44:33;;;;;;;4.50;4.10;;;;;;;;;;5012091;28;20038;-73
2023/09/08 13:46:59;;;;;;;7.53;4.45;;;;;;;;;;5014821;28;20042;-73
2023/09/08 13:49:26;;;;;;;6.00;4.05;;;;;;;;;;5015921;28;20096;-72
2023/09/08 13:51:53;;;;;;;7.75;4.57;;;;;;;;;;5011860;28;20064;-72
2023/09/08 13:54:20;;;;;;;4.38;3.97;;;;;;;;;;5008912;28;20530;-73
2023/09/08 13:56:45;;;;;;;5.40;4.30;;;;;;;;;;5012168;28;20041;-73
2023/09/08 13:59:12;;;;;;;5.63;4.47;;;;;;;;;;5008208;28;20125;-73
2023/09/08 14:01:38;;;;;;;4.90;4.00;;;;;;;;;;5009292;28;20465;-73
2023/09/08 14:04:06;;;;;;;4.40;4.00;;;;;;;;;;5010263;28;20436;-73
2023/09/08 14:06:32;;;;;;;7.63;4.10;;;;;;;;;;5011985;28;20046;-73
2023/09/08 14:08:58;;;;;;;6.50;5.03;;;;;;;;;;5008799;28;20054;-73
2023/09/08 14:11:24;;;;;;;5.72;4.40;;;;;;;;;;5013878;28;20045;-73
2023/09/08 14:13:50;;;;;;;5.15;4.32;;;;;;;;;;5013037;28;20505;-73
2023/09/08 14:16:18;;;;;;;4.45;4.03;;;;;;;;;;5013642;28;20118;-73
2023/09/08 14:18:44;;;;;;;6.78;4.45;;;;;;;;;;5009062;28;20038;-73
2023/09/08 14:21:10;;;;;;;5.15;4.22;;;;;;;;;;5004343;28;20045;-73
2023/09/08 14:23:38;;;;;;;4.70;3.88;;;;;;;;;;5011761;28;20041;-73
2023/09/08 14:26:04;;;;;;;4.28;3.88;;;;;;;;;;5013905;28;20050;-73
2023/09/08 14:28:33;;;;;;;6.28;4.10;;;;;;;;;;5012825;28;20044;-73
2023/09/08 14:30:59;;;;;;;6.35;4.35;;;;;;;;;;5011840;28;20042;-73